createdAt,value
2023-12-14T00:01:56.127Z,10.55
2023-12-14T00:04:23.119Z,10.33
2023-12-14T00:06:50.229Z,10.07
2023-12-14T00:09:17.235Z,10.45
2023-12-14T00:11:44.221Z,10.55
2023-12-14T00:14:11.338Z,10.84
2023-12-14T00:16:38.403Z,10.60
2023-12-14T00:19:05.509Z,10.30
2023-12-14T00:21:32.440Z,10.23
2023-12-14T00:23:59.349Z,10.27
2023-12-14T00:26:26.298Z,10.06
2023-12-14T00:29:01.136Z,9.89
2023-12-14T00:31:29.174Z,9.89
2023-12-14T00:33:56.134Z,9.91
2023-12-14T00:36:23.117Z,9.87
2023-12-14T00:38:50.075Z,9.53
2023-12-14T00:41:17.043Z,10.14
2023-12-14T00:43:44.143Z,10.14
2023-12-14T00:46:12.657Z,9.78
2023-12-14T00:48:39.768Z,10.09
2023-12-14T00:51:06.877Z,10.13
2023-12-14T00:53:33.838Z,10.49
2023-12-14T00:56:00.850Z,10.49
2023-12-14T00:58:27.957Z,10.44
2023-12-14T01:00:55.908Z,11.04
2023-12-14T01:03:23.232Z,10.92
2023-12-14T01:05:50.398Z,11.15
2023-12-14T01:08:17.429Z,11.25
2023-12-14T01:10:44.898Z,11.62
2023-12-14T01:13:11.870Z,11.92
2023-12-14T01:15:38.807Z,12.45
2023-12-14T01:18:05.923Z,12.49
2023-12-14T01:20:33.298Z,12.24
2023-12-14T01:23:00.406Z,12.05
2023-12-14T01:25:27.477Z,12.09
2023-12-14T01:27:54.446Z,12.29
2023-12-14T01:30:21.464Z,12.08
2023-12-14T01:32:48.514Z,12.09
2023-12-14T01:35:15.510Z,12.30
2023-12-14T01:37:42.538Z,11.41
2023-12-14T01:40:09.871Z,12.02
2023-12-14T01:42:36.955Z,12.02
2023-12-14T01:45:05.128Z,12.13
2023-12-14T01:47:32.092Z,12.08
2023-12-14T01:49:59.068Z,12.29
2023-12-14T01:52:26.111Z,12.30
2023-12-14T01:54:52.978Z,11.50
2023-12-14T01:57:20.043Z,11.64
2023-12-14T01:59:46.977Z,10.87
2023-12-14T02:02:13.993Z,11.24
2023-12-14T02:04:41.024Z,11.66
2023-12-14T02:07:08.012Z,12.04
2023-12-14T02:09:34.968Z,12.49
2023-12-14T02:12:02.003Z,12.24
2023-12-14T02:14:28.934Z,12.00
2023-12-14T02:16:55.925Z,11.47
2023-12-14T02:19:22.923Z,11.67
2023-12-14T02:21:49.864Z,11.57
2023-12-14T02:24:16.816Z,11.48
2023-12-14T02:26:43.765Z,11.35
2023-12-14T02:29:29.370Z,11.30
2023-12-14T02:31:56.302Z,11.07
2023-12-14T02:34:23.328Z,10.34
2023-12-14T02:36:50.332Z,10.98
2023-12-14T02:39:17.361Z,10.71
2023-12-14T02:41:44.294Z,11.03
2023-12-14T02:44:11.346Z,10.58
2023-12-14T02:46:38.289Z,10.68
2023-12-14T02:49:05.279Z,10.35
2023-12-14T02:51:32.253Z,10.89
2023-12-14T02:53:59.266Z,10.39
2023-12-14T02:56:26.204Z,10.06
2023-12-14T02:58:55.118Z,9.63
2023-12-14T03:01:24.994Z,9.80
2023-12-14T03:03:52.060Z,9.69
2023-12-14T03:06:19.127Z,9.71
2023-12-14T03:08:46.665Z,9.88
2023-12-14T03:11:26.273Z,9.65
2023-12-14T03:13:53.709Z,9.87
2023-12-14T03:16:20.989Z,9.58
2023-12-14T03:18:47.999Z,9.65
2023-12-14T03:21:14.971Z,9.72
2023-12-14T03:23:41.960Z,9.62
2023-12-14T03:26:08.912Z,9.66
2023-12-14T03:28:36.346Z,9.49
2023-12-14T03:31:03.785Z,9.52
2023-12-14T03:33:31.102Z,9.05
2023-12-14T03:35:58.119Z,9.14
2023-12-14T03:38:25.050Z,9.38
2023-12-14T03:40:51.980Z,9.36
2023-12-14T03:43:19.012Z,9.32
2023-12-14T03:45:46.208Z,9.35
2023-12-14T03:48:13.233Z,9.49
2023-12-14T03:50:40.219Z,9.75
2023-12-14T03:53:07.169Z,9.71
2023-12-14T03:55:34.786Z,9.59
2023-12-14T03:58:02.082Z,9.74
2023-12-14T04:00:29.043Z,9.93
2023-12-14T04:02:56.008Z,9.91
2023-12-14T04:05:23.229Z,9.89
2023-12-14T04:07:50.353Z,9.89
2023-12-14T04:10:17.357Z,9.97
2023-12-14T04:12:44.324Z,9.93
2023-12-14T04:15:11.724Z,10.27
2023-12-14T04:17:39.027Z,10.24
2023-12-14T04:20:07.660Z,10.30
2023-12-14T04:22:35.214Z,10.15
2023-12-14T04:25:02.539Z,10.27
2023-12-14T04:27:31.428Z,9.72
2023-12-14T04:29:58.602Z,9.78
2023-12-14T04:32:25.666Z,9.28
2023-12-14T04:34:52.702Z,9.64
2023-12-14T04:37:19.637Z,9.16
2023-12-14T04:39:46.529Z,9.52
2023-12-14T04:42:13.494Z,9.46
2023-12-14T04:44:40.490Z,9.30
2023-12-14T04:47:08.057Z,8.90
2023-12-14T04:49:35.072Z,8.94
2023-12-14T04:52:02.051Z,9.59
2023-12-14T04:54:29.035Z,9.35
2023-12-14T04:56:55.999Z,9.89
2023-12-14T04:59:22.952Z,9.98
2023-12-14T05:01:49.940Z,9.49
2023-12-14T05:04:16.878Z,9.41
2023-12-14T05:06:43.803Z,9.49
2023-12-14T05:09:12.801Z,10.30
2023-12-14T05:11:42.018Z,9.85
2023-12-14T05:14:09.142Z,9.97
2023-12-14T05:16:36.187Z,9.93
2023-12-14T05:19:03.201Z,10.14
2023-12-14T05:21:30.182Z,9.93
2023-12-14T05:23:57.183Z,9.52
2023-12-14T05:26:24.205Z,9.45
2023-12-14T05:28:51.125Z,9.42
2023-12-14T05:31:18.132Z,9.69
2023-12-14T05:33:45.214Z,9.53
2023-12-14T05:36:12.381Z,9.82
2023-12-14T05:38:42.860Z,9.71
2023-12-14T05:41:10.029Z,9.34
2023-12-14T05:43:37.812Z,9.26
2023-12-14T05:46:05.176Z,9.34
2023-12-14T05:48:32.264Z,9.20
2023-12-14T05:51:02.536Z,8.95
2023-12-14T05:53:29.498Z,8.99
2023-12-14T05:55:56.874Z,9.21
2023-12-14T05:58:23.870Z,9.22
2023-12-14T06:00:50.897Z,9.02
2023-12-14T06:03:17.829Z,9.49
2023-12-14T06:05:44.882Z,9.19
2023-12-14T06:08:11.950Z,9.51
2023-12-14T06:10:39.011Z,9.72
2023-12-14T06:13:06.055Z,9.26
2023-12-14T06:15:32.979Z,9.27
2023-12-14T06:18:00.584Z,8.94
2023-12-14T06:20:27.810Z,9.09
2023-12-14T06:22:54.949Z,9.23
2023-12-14T06:25:21.931Z,9.53
2023-12-14T06:27:48.860Z,9.02
2023-12-14T06:30:16.072Z,9.02
2023-12-14T06:32:43.256Z,9.53
2023-12-14T06:35:10.332Z,9.34
2023-12-14T06:37:37.389Z,9.46
2023-12-14T06:40:04.737Z,9.10
2023-12-14T06:42:32.407Z,9.56
2023-12-14T06:44:59.658Z,9.32
2023-12-14T06:47:26.738Z,9.95
2023-12-14T06:49:53.813Z,10.32
2023-12-14T06:52:20.856Z,10.48
2023-12-14T06:54:47.827Z,10.24
2023-12-14T06:57:14.744Z,10.73
2023-12-14T06:59:41.661Z,10.44
2023-12-14T07:02:08.939Z,10.27
2023-12-14T07:04:35.921Z,11.23
2023-12-14T07:07:02.896Z,11.18
2023-12-14T07:09:29.837Z,11.55
2023-12-14T07:11:56.948Z,11.86
2023-12-14T07:14:26.382Z,11.78
2023-12-14T07:16:53.596Z,12.26
2023-12-14T07:19:20.587Z,11.96
2023-12-14T07:21:47.516Z,11.84
2023-12-14T07:24:14.438Z,11.34
2023-12-14T07:26:41.496Z,12.09
2023-12-14T07:29:08.553Z,11.61
2023-12-14T07:31:35.848Z,11.07
2023-12-14T07:34:02.810Z,11.69
2023-12-14T07:36:29.808Z,12.06
2023-12-14T07:38:56.934Z,11.76
2023-12-14T07:41:28.014Z,11.46
2023-12-14T07:43:55.089Z,11.76
2023-12-14T07:46:22.394Z,12.24
2023-12-14T07:48:49.434Z,12.07
2023-12-14T07:51:16.378Z,11.92
2023-12-14T07:53:44.033Z,11.74
2023-12-14T07:56:13.124Z,12.45
2023-12-14T07:58:40.155Z,12.09
2023-12-14T08:01:07.431Z,12.33
2023-12-14T08:03:34.525Z,12.59
2023-12-14T08:06:01.527Z,12.89
2023-12-14T08:08:28.473Z,12.71
2023-12-14T08:10:55.411Z,12.51
2023-12-14T08:13:22.399Z,12.20
2023-12-14T08:15:49.372Z,12.10
2023-12-14T08:18:16.417Z,11.33
2023-12-14T08:20:43.334Z,11.24
2023-12-14T08:23:10.322Z,11.45
2023-12-14T08:25:37.290Z,11.81
2023-12-14T08:28:05.807Z,11.66
2023-12-14T08:30:33.122Z,12.06
2023-12-14T08:33:00.248Z,11.74
2023-12-14T08:35:27.331Z,11.30
2023-12-14T08:37:54.385Z,11.34
2023-12-14T08:40:21.391Z,11.12
2023-12-14T08:42:48.928Z,11.10
2023-12-14T08:45:16.998Z,11.75
2023-12-14T08:47:44.510Z,11.33
2023-12-14T08:50:11.614Z,10.90
2023-12-14T08:52:39.445Z,10.50
2023-12-14T08:55:07.060Z,10.64
2023-12-14T08:57:33.988Z,10.84
2023-12-14T09:00:00.957Z,10.98
2023-12-14T09:02:28.295Z,11.22
2023-12-14T09:04:55.506Z,10.78
2023-12-14T09:07:22.509Z,11.07
2023-12-14T09:09:49.641Z,10.93
2023-12-14T09:12:16.638Z,10.71
2023-12-14T09:14:43.608Z,11.02
2023-12-14T09:17:10.715Z,11.21
2023-12-14T09:19:37.744Z,11.48
2023-12-14T09:22:04.806Z,11.87
2023-12-14T09:24:31.867Z,11.67
2023-12-14T09:26:58.866Z,11.02
2023-12-14T09:29:26.000Z,11.67
2023-12-14T09:31:53.207Z,11.60
2023-12-14T09:34:20.344Z,11.66
2023-12-14T09:36:47.363Z,11.29
2023-12-14T09:39:15.138Z,11.53
2023-12-14T09:41:42.202Z,11.22
2023-12-14T09:44:09.215Z,11.22
2023-12-14T09:46:39.207Z,11.29
2023-12-14T09:49:08.962Z,12.01
2023-12-14T09:51:36.330Z,10.75
2023-12-14T09:54:04.068Z,10.82
2023-12-14T09:56:31.882Z,11.70
2023-12-14T09:58:59.712Z,11.84
2023-12-14T10:01:27.825Z,12.40
2023-12-14T10:04:10.621Z,10.79
2023-12-14T10:06:38.470Z,10.29
2023-12-14T10:09:25.731Z,10.03
2023-12-14T10:12:04.419Z,10.13
2023-12-14T10:14:31.457Z,9.97
2023-12-14T10:17:03.517Z,10.03
2023-12-14T10:19:31.459Z,9.89
2023-12-14T10:21:58.549Z,9.48
2023-12-14T10:24:25.627Z,9.38
2023-12-14T10:26:52.845Z,10.01
2023-12-14T10:29:20.003Z,10.20
2023-12-14T10:31:47.546Z,9.89
2023-12-14T10:34:14.986Z,9.81
2023-12-14T10:36:42.229Z,9.80
2023-12-14T10:39:09.915Z,9.64
2023-12-14T10:41:37.909Z,9.53
2023-12-14T10:44:19.956Z,9.47
2023-12-14T10:46:57.418Z,9.32
2023-12-14T10:49:27.469Z,10.05
2023-12-14T10:51:56.586Z,10.43
2023-12-14T10:54:25.048Z,10.27
2023-12-14T10:56:57.759Z,9.67
2023-12-14T10:59:27.473Z,9.54
2023-12-14T11:01:55.263Z,9.24
2023-12-14T11:04:28.623Z,9.62
2023-12-14T11:06:58.749Z,10.00
2023-12-14T11:09:26.275Z,9.89
2023-12-14T11:12:00.168Z,9.97
2023-12-14T11:14:28.201Z,9.71
2023-12-14T11:17:04.820Z,10.09
2023-12-14T11:19:32.083Z,9.64
2023-12-14T11:22:16.534Z,9.26
2023-12-14T11:24:45.038Z,9.48
2023-12-14T11:27:13.356Z,9.05
2023-12-14T11:29:43.143Z,9.75
2023-12-14T11:32:10.693Z,9.64
2023-12-14T11:34:40.788Z,9.59
2023-12-14T11:37:08.460Z,9.53
2023-12-14T11:39:35.402Z,9.66
2023-12-14T11:42:03.508Z,9.55
2023-12-14T11:44:31.875Z,10.00
2023-12-14T11:46:58.904Z,10.01
2023-12-14T11:49:29.866Z,9.76
2023-12-14T11:51:57.091Z,10.03
2023-12-14T11:54:24.048Z,10.03
2023-12-14T11:56:51.727Z,10.31
2023-12-14T11:59:20.305Z,10.23
2023-12-14T12:02:01.107Z,10.10
2023-12-14T12:04:29.100Z,10.72
2023-12-14T12:07:08.245Z,10.26
2023-12-14T12:09:40.024Z,10.03
2023-12-14T12:12:07.791Z,10.08
2023-12-14T12:14:35.221Z,10.08
2023-12-14T12:17:02.220Z,11.02
2023-12-14T12:19:29.169Z,10.61
2023-12-14T12:21:56.137Z,11.34
2023-12-14T12:24:27.101Z,11.08
2023-12-14T12:26:55.416Z,10.64
2023-12-14T12:29:23.363Z,11.02
2023-12-14T12:31:50.525Z,10.97
2023-12-14T12:34:17.515Z,10.81
2023-12-14T12:36:44.887Z,10.94
2023-12-14T12:39:11.861Z,10.91
2023-12-14T12:41:38.826Z,10.70
2023-12-14T12:44:07.747Z,11.40
2023-12-14T12:46:35.757Z,11.70
2023-12-14T12:49:03.832Z,11.13
2023-12-14T12:51:31.975Z,10.90
2023-12-14T12:54:09.460Z,11.45
2023-12-14T12:56:39.785Z,11.28
2023-12-14T12:59:09.824Z,11.93
2023-12-14T13:01:37.547Z,11.28
2023-12-14T13:04:06.157Z,11.77
2023-12-14T13:06:33.281Z,11.64
2023-12-14T13:09:00.344Z,11.17
2023-12-14T13:11:27.414Z,11.09
2023-12-14T13:13:54.538Z,10.54
2023-12-14T13:16:21.561Z,10.24
2023-12-14T13:18:48.634Z,10.67
2023-12-14T13:21:15.693Z,11.26
2023-12-14T13:23:43.090Z,11.29
2023-12-14T13:26:10.131Z,11.27
2023-12-14T13:28:37.201Z,10.74
2023-12-14T13:31:04.543Z,11.55
2023-12-14T13:33:32.005Z,10.68
2023-12-14T13:35:58.972Z,10.27
2023-12-14T13:38:26.648Z,10.95
2023-12-14T13:40:53.839Z,10.49
2023-12-14T13:43:20.854Z,10.83
2023-12-14T13:45:55.201Z,10.81
2023-12-14T13:48:29.741Z,10.18
2023-12-14T13:50:57.660Z,11.10
2023-12-14T13:53:24.878Z,10.82
2023-12-14T13:55:51.987Z,10.69
2023-12-14T13:58:19.281Z,10.24
2023-12-14T14:00:46.256Z,10.55
2023-12-14T14:03:14.370Z,10.69
2023-12-14T14:05:41.573Z,10.57
2023-12-14T14:08:14.068Z,10.60
2023-12-14T14:10:44.329Z,10.72
2023-12-14T14:13:11.300Z,10.35
2023-12-14T14:15:38.269Z,11.24
2023-12-14T14:18:05.343Z,10.92
2023-12-14T14:20:32.445Z,11.21
2023-12-14T14:23:00.958Z,10.94
2023-12-14T14:25:28.206Z,10.47
2023-12-14T14:27:55.103Z,10.59
2023-12-14T14:30:23.423Z,10.36
2023-12-14T14:32:50.489Z,10.09
2023-12-14T14:35:18.006Z,10.27
2023-12-14T14:37:47.420Z,9.32
2023-12-14T14:40:15.069Z,9.24
2023-12-14T14:42:42.656Z,9.08
2023-12-14T14:45:10.544Z,9.70
2023-12-14T14:47:38.011Z,9.46
2023-12-14T14:50:08.250Z,9.09
2023-12-14T14:52:35.996Z,9.18
2023-12-14T14:55:03.284Z,9.65
2023-12-14T14:57:30.366Z,9.47
2023-12-14T14:59:57.286Z,9.38
2023-12-14T15:02:25.194Z,8.89
2023-12-14T15:04:52.325Z,9.14
2023-12-14T15:07:19.732Z,9.17
2023-12-14T15:09:46.680Z,9.33
2023-12-14T15:12:13.657Z,9.11
2023-12-14T15:14:40.557Z,8.92
2023-12-14T15:17:07.604Z,8.92
2023-12-14T15:19:34.614Z,8.96
2023-12-14T15:22:01.503Z,9.03
2023-12-14T15:24:28.432Z,9.59
2023-12-14T15:26:55.437Z,8.77
2023-12-14T15:29:22.731Z,9.12
2023-12-14T15:31:51.078Z,9.01
2023-12-14T15:34:19.858Z,9.03
2023-12-14T15:36:46.919Z,9.38
2023-12-14T15:39:13.829Z,8.81
2023-12-14T15:41:40.797Z,8.97
2023-12-14T15:44:07.794Z,8.38
2023-12-14T15:46:34.841Z,8.78
2023-12-14T15:49:02.950Z,8.51
2023-12-14T15:51:29.936Z,8.66
2023-12-14T15:53:58.114Z,8.47
2023-12-14T15:56:26.255Z,8.57
2023-12-14T15:58:53.258Z,8.41
2023-12-14T16:01:22.474Z,8.27
2023-12-14T16:03:49.470Z,8.43
2023-12-14T16:06:17.351Z,7.95
2023-12-14T16:08:44.361Z,8.12
2023-12-14T16:11:12.308Z,7.54
2023-12-14T16:13:39.258Z,7.97
2023-12-14T16:16:06.503Z,8.28
2023-12-14T16:18:33.658Z,8.54
2023-12-14T16:21:01.151Z,8.38
2023-12-14T16:23:28.105Z,8.28
2023-12-14T16:25:58.893Z,8.20
2023-12-14T16:28:25.974Z,8.81
2023-12-14T16:30:52.998Z,8.97
2023-12-14T16:33:20.097Z,9.36
2023-12-14T16:35:47.164Z,8.61
2023-12-14T16:38:14.401Z,8.64
2023-12-14T16:40:41.454Z,8.65
2023-12-14T16:43:08.454Z,9.03
2023-12-14T16:45:35.385Z,8.43
2023-12-14T16:48:03.253Z,8.70
2023-12-14T16:50:30.272Z,9.06
2023-12-14T16:52:57.257Z,9.49
2023-12-14T16:55:25.175Z,9.88
2023-12-14T16:57:52.127Z,9.36
2023-12-14T17:00:19.386Z,9.74
2023-12-14T17:02:46.369Z,10.97
2023-12-14T17:05:13.686Z,10.47
2023-12-14T17:07:40.629Z,10.78
2023-12-14T17:10:08.159Z,10.45
2023-12-14T17:12:35.434Z,10.23
2023-12-14T17:15:02.992Z,10.88
2023-12-14T17:17:35.453Z,10.64
2023-12-14T17:20:02.721Z,10.72
2023-12-14T17:22:34.443Z,10.85
2023-12-14T17:25:01.574Z,10.58
2023-12-14T17:27:28.491Z,10.46
2023-12-14T17:29:55.465Z,10.29
2023-12-14T17:32:22.529Z,10.54
2023-12-14T17:34:49.566Z,9.17
2023-12-14T17:37:16.866Z,9.45
2023-12-14T17:39:45.154Z,9.60
2023-12-14T17:42:19.224Z,9.10
2023-12-14T17:44:47.266Z,9.01
2023-12-14T17:47:14.275Z,9.51
2023-12-14T17:49:41.240Z,9.69
2023-12-14T17:52:08.152Z,9.61
2023-12-14T17:54:38.463Z,9.14
2023-12-14T17:57:05.491Z,9.46
2023-12-14T17:59:32.479Z,9.14
2023-12-14T18:01:59.474Z,9.38
2023-12-14T18:04:26.468Z,9.65
2023-12-14T18:06:53.468Z,9.45
2023-12-14T18:09:20.425Z,9.23
2023-12-14T18:11:47.472Z,8.92
2023-12-14T18:14:14.535Z,9.29
2023-12-14T18:16:41.776Z,9.84
2023-12-14T18:19:08.983Z,9.35
2023-12-14T18:21:36.240Z,9.59
2023-12-14T18:24:04.971Z,8.83
2023-12-14T18:26:32.101Z,9.43
2023-12-14T18:28:59.110Z,9.60
2023-12-14T18:31:26.412Z,8.88
2023-12-14T18:33:53.971Z,9.40
2023-12-14T18:36:21.121Z,9.54
2023-12-14T18:38:48.082Z,10.05
2023-12-14T18:41:15.164Z,9.75
2023-12-14T18:43:42.846Z,8.78
2023-12-14T18:46:10.064Z,8.49
2023-12-14T18:48:38.592Z,8.25
2023-12-14T18:51:06.006Z,8.95
2023-12-14T18:53:33.081Z,9.24
2023-12-14T18:56:00.093Z,9.34
2023-12-14T18:58:27.026Z,9.81
2023-12-14T19:00:54.028Z,9.32
2023-12-14T19:03:21.045Z,8.83
2023-12-14T19:05:48.089Z,8.71
2023-12-14T19:08:15.109Z,9.34
2023-12-14T19:10:42.119Z,9.39
2023-12-14T19:13:09.001Z,8.78
2023-12-14T19:15:35.948Z,9.35
2023-12-14T19:18:03.042Z,9.47
2023-12-14T19:20:30.229Z,8.76
2023-12-14T19:22:57.343Z,8.95
2023-12-14T19:25:24.233Z,9.31
2023-12-14T19:27:54.062Z,8.67
2023-12-14T19:30:22.068Z,9.14
2023-12-14T19:32:49.719Z,9.24
2023-12-14T19:35:16.998Z,8.96
2023-12-14T19:37:47.203Z,8.74
2023-12-14T19:40:15.038Z,8.48
2023-12-14T19:42:41.955Z,8.63
2023-12-14T19:45:09.411Z,8.14
2023-12-14T19:47:40.656Z,8.89
2023-12-14T19:50:09.332Z,9.01
2023-12-14T19:52:37.334Z,8.44
2023-12-14T19:55:05.546Z,8.42
2023-12-14T19:57:32.626Z,8.56
2023-12-14T19:59:59.626Z,8.61
2023-12-14T20:02:26.657Z,8.97
2023-12-14T20:04:53.686Z,8.80
2023-12-14T20:07:20.697Z,8.51
2023-12-14T20:09:57.585Z,8.50
2023-12-14T20:12:29.573Z,8.57
2023-12-14T20:14:56.561Z,8.28
2023-12-14T20:17:24.020Z,8.40
2023-12-14T20:19:50.939Z,8.39
2023-12-14T20:22:20.929Z,8.43
2023-12-14T20:24:49.306Z,8.51
2023-12-14T20:27:16.597Z,8.43
2023-12-14T20:29:43.881Z,8.74
2023-12-14T20:32:10.907Z,8.23
2023-12-14T20:34:37.861Z,8.39
2023-12-14T20:37:05.052Z,8.37
2023-12-14T20:39:31.996Z,7.66
2023-12-14T20:41:58.925Z,8.18
2023-12-14T20:44:25.958Z,7.96
2023-12-14T20:46:52.949Z,8.16
2023-12-14T20:49:21.137Z,8.56
2023-12-14T20:51:48.131Z,8.43
2023-12-14T20:54:15.096Z,8.25
2023-12-14T20:56:42.073Z,8.84
2023-12-14T20:59:09.019Z,8.85
2023-12-14T21:01:36.058Z,8.84
2023-12-14T21:04:03.231Z,8.65
2023-12-14T21:06:32.563Z,8.73
2023-12-14T21:09:00.304Z,8.19
2023-12-14T21:11:27.421Z,8.65
2023-12-14T21:13:54.785Z,8.25
2023-12-14T21:16:22.046Z,8.59
2023-12-14T21:18:49.206Z,8.64
2023-12-14T21:21:16.337Z,8.89
2023-12-14T21:23:43.342Z,8.45
2023-12-14T21:26:13.416Z,8.37
2023-12-14T21:28:40.507Z,8.72
2023-12-14T21:31:07.835Z,8.54
2023-12-14T21:33:35.171Z,8.29
2023-12-14T21:36:02.764Z,8.27
2023-12-14T21:38:32.318Z,8.42
2023-12-14T21:40:59.763Z,8.61
2023-12-14T21:43:27.397Z,8.07
2023-12-14T21:45:55.430Z,8.27
2023-12-14T21:48:22.637Z,8.37
2023-12-14T21:50:49.600Z,8.19
2023-12-14T21:53:16.711Z,8.58
2023-12-14T21:55:43.658Z,9.03
2023-12-14T21:58:10.641Z,8.09
2023-12-14T22:00:37.603Z,8.55
2023-12-14T22:03:04.713Z,8.40
2023-12-14T22:05:31.922Z,8.82
2023-12-14T22:07:58.857Z,8.31
2023-12-14T22:10:25.861Z,8.46
2023-12-14T22:12:55.622Z,8.56
2023-12-14T22:15:23.987Z,8.09
2023-12-14T22:17:51.182Z,8.16
2023-12-14T22:20:18.281Z,8.36
2023-12-14T22:22:45.266Z,8.04
2023-12-14T22:25:12.320Z,7.94
2023-12-14T22:27:39.435Z,7.80
2023-12-14T22:30:09.018Z,8.07
2023-12-14T22:32:36.272Z,7.50
2023-12-14T22:35:03.446Z,7.77
2023-12-14T22:37:30.450Z,7.83
2023-12-14T22:39:57.381Z,7.71
2023-12-14T22:42:24.313Z,7.91
2023-12-14T22:44:51.269Z,8.21
2023-12-14T22:47:18.273Z,8.04
2023-12-14T22:49:45.702Z,8.47
2023-12-14T22:52:12.615Z,8.10
2023-12-14T22:54:40.686Z,8.09
2023-12-14T22:57:08.093Z,8.03
2023-12-14T22:59:39.528Z,7.97
2023-12-14T23:02:07.191Z,8.04
2023-12-14T23:04:35.392Z,8.43
2023-12-14T23:07:03.394Z,8.18
2023-12-14T23:09:30.512Z,8.30
2023-12-14T23:11:57.458Z,8.14
2023-12-14T23:14:24.627Z,8.09
2023-12-14T23:16:51.952Z,7.63
2023-12-14T23:19:19.922Z,7.78
2023-12-14T23:21:46.934Z,8.20
2023-12-14T23:24:13.844Z,7.54
2023-12-14T23:26:40.787Z,8.44
2023-12-14T23:29:07.787Z,7.50
2023-12-14T23:31:34.744Z,7.96
2023-12-14T23:34:01.789Z,7.64
2023-12-14T23:36:28.751Z,7.54
2023-12-14T23:38:55.701Z,8.12
2023-12-14T23:41:22.724Z,8.11
2023-12-14T23:43:49.811Z,7.74
2023-12-14T23:46:16.755Z,7.92
2023-12-14T23:48:45.197Z,8.44
2023-12-14T23:51:12.286Z,8.18
2023-12-14T23:53:39.214Z,7.80
2023-12-14T23:56:06.875Z,8.47
2023-12-14T23:58:33.879Z,8.07
